createdAt,value
2017-05-07T00:01:21.689Z,7.60
2017-05-07T00:03:49.386Z,7.50
2017-05-07T00:06:17.005Z,7.60
2017-05-07T00:08:44.616Z,7.50
2017-05-07T00:11:12.130Z,7.40
2017-05-07T00:13:40.046Z,7.40
2017-05-07T00:16:08.357Z,7.40
2017-05-07T00:18:36.214Z,7.30
2017-05-07T00:21:03.865Z,7.30
2017-05-07T00:23:31.510Z,7.40
2017-05-07T00:25:59.061Z,7.50
2017-05-07T00:28:27.338Z,7.50
2017-05-07T00:30:55.623Z,7.60
2017-05-07T00:33:23.883Z,7.60
2017-05-07T00:35:51.403Z,7.60
2017-05-07T00:38:19.121Z,7.60
2017-05-07T00:40:47.412Z,7.70
2017-05-07T00:43:14.951Z,7.60
2017-05-07T00:45:43.283Z,7.70
2017-05-07T00:48:10.775Z,7.70
2017-05-07T00:50:39.086Z,7.70
2017-05-07T00:53:06.860Z,7.70
2017-05-07T00:55:34.428Z,7.70
2017-05-07T00:58:03.047Z,7.70
2017-05-07T01:00:30.584Z,7.70
2017-05-07T01:02:58.085Z,7.70
2017-05-07T01:05:25.607Z,7.60
2017-05-07T01:07:53.151Z,7.60
2017-05-07T01:10:20.911Z,7.60
2017-05-07T01:12:48.463Z,7.60
2017-05-07T01:15:15.979Z,7.60
2017-05-07T01:17:43.721Z,7.60
2017-05-07T01:20:11.275Z,7.70
2017-05-07T01:22:39.591Z,7.60
2017-05-07T01:25:07.099Z,7.60
2017-05-07T01:27:35.409Z,7.50
2017-05-07T01:30:02.927Z,7.40
2017-05-07T01:32:30.445Z,7.40
2017-05-07T01:34:57.952Z,7.30
2017-05-07T01:37:26.261Z,7.10
2017-05-07T01:39:54.054Z,7.10
2017-05-07T01:42:21.581Z,7.10
2017-05-07T01:44:49.134Z,7.00
2017-05-07T01:47:16.905Z,6.90
2017-05-07T01:49:44.408Z,6.90
2017-05-07T01:52:12.007Z,6.80
2017-05-07T01:54:39.507Z,6.80
2017-05-07T01:57:07.068Z,6.60
2017-05-07T01:59:34.576Z,6.60
2017-05-07T02:02:02.149Z,6.50
2017-05-07T02:04:29.892Z,6.40
2017-05-07T02:06:57.412Z,6.30
2017-05-07T02:09:25.032Z,6.40
2017-05-07T02:11:52.559Z,6.30
2017-05-07T02:14:21.115Z,6.20
2017-05-07T02:16:48.677Z,6.20
2017-05-07T02:19:16.514Z,6.10
2017-05-07T02:21:44.077Z,6.00
2017-05-07T02:24:11.596Z,5.90
2017-05-07T02:26:39.160Z,5.80
2017-05-07T02:29:06.747Z,5.80
2017-05-07T02:31:34.255Z,5.70
2017-05-07T02:34:02.003Z,5.70
2017-05-07T02:36:30.271Z,5.70
2017-05-07T02:38:58.757Z,5.60
2017-05-07T02:41:26.540Z,5.60
2017-05-07T02:43:54.327Z,5.60
2017-05-07T02:46:22.059Z,5.60
2017-05-07T02:48:49.580Z,5.60
2017-05-07T02:51:17.331Z,5.70
2017-05-07T02:53:44.865Z,5.80
2017-05-07T02:56:12.613Z,6.00
2017-05-07T02:58:40.141Z,6.10
2017-05-07T03:01:08.484Z,6.40
2017-05-07T03:03:36.089Z,6.30
2017-05-07T03:06:03.588Z,6.50
2017-05-07T03:08:31.113Z,6.70
2017-05-07T03:10:58.624Z,6.70
2017-05-07T03:13:26.230Z,6.70
2017-05-07T03:15:53.983Z,6.70
2017-05-07T03:18:21.554Z,6.80
2017-05-07T03:20:49.198Z,6.90
2017-05-07T03:23:16.741Z,6.90
2017-05-07T03:25:45.009Z,7.00
2017-05-07T03:28:13.505Z,7.00
2017-05-07T03:30:41.029Z,6.90
2017-05-07T03:33:08.564Z,7.00
2017-05-07T03:35:36.088Z,7.10
2017-05-07T03:38:03.826Z,7.20
2017-05-07T03:40:32.189Z,7.50
2017-05-07T03:42:59.731Z,7.50
2017-05-07T03:45:27.299Z,7.50
2017-05-07T03:47:54.792Z,7.40
2017-05-07T03:50:22.368Z,7.40
2017-05-07T03:52:49.876Z,7.50
2017-05-07T03:55:17.763Z,7.60
2017-05-07T03:57:45.306Z,7.60
2017-05-07T04:00:13.596Z,7.60
2017-05-07T04:02:41.089Z,7.60
2017-05-07T04:05:08.655Z,7.60
2017-05-07T04:07:36.216Z,7.60
2017-05-07T04:10:03.744Z,7.70
2017-05-07T04:12:31.247Z,7.80
2017-05-07T04:14:58.828Z,7.80
2017-05-07T04:17:27.214Z,7.80
2017-05-07T04:19:54.802Z,7.80
2017-05-07T04:22:22.356Z,7.90
2017-05-07T04:24:50.006Z,8.00
2017-05-07T04:27:17.539Z,8.10
2017-05-07T04:29:45.804Z,8.40
2017-05-07T04:32:14.093Z,8.50
2017-05-07T04:34:42.416Z,8.70
2017-05-07T04:37:09.999Z,8.70
2017-05-07T04:39:37.535Z,8.80
2017-05-07T04:42:05.096Z,8.80
2017-05-07T04:44:32.879Z,8.90
2017-05-07T04:47:00.459Z,8.90
2017-05-07T04:49:28.719Z,9.00
2017-05-07T04:51:56.243Z,8.90
2017-05-07T04:54:23.779Z,9.20
2017-05-07T04:56:51.363Z,9.40
2017-05-07T04:59:19.105Z,9.10
2017-05-07T05:01:46.644Z,9.20
2017-05-07T05:04:14.214Z,9.30
2017-05-07T05:06:41.792Z,9.40
2017-05-07T05:09:10.047Z,9.40
2017-05-07T05:11:37.814Z,9.40
2017-05-07T05:14:05.992Z,9.40
2017-05-07T05:16:33.567Z,9.60
2017-05-07T05:19:15.987Z,9.60
2017-05-07T05:25:05.242Z,9.80
2017-05-07T05:27:47.677Z,9.90
2017-05-07T05:30:30.193Z,9.70
2017-05-07T05:32:58.021Z,9.70
2017-05-07T05:35:26.640Z,9.80
2017-05-07T05:37:54.467Z,9.80
2017-05-07T05:40:22.922Z,9.90
2017-05-07T05:42:51.232Z,10.20
2017-05-07T05:45:19.511Z,9.90
2017-05-07T05:47:47.827Z,9.90
2017-05-07T05:50:16.124Z,10.40
2017-05-07T05:52:43.630Z,10.40
2017-05-07T05:55:11.159Z,10.70
2017-05-07T05:57:38.729Z,10.80
2017-05-07T06:00:06.274Z,10.80
2017-05-07T06:02:33.815Z,10.80
2017-05-07T06:05:01.373Z,11.00
2017-05-07T06:07:30.471Z,10.60
2017-05-07T06:09:58.091Z,10.60
2017-05-07T06:12:26.431Z,10.90
2017-05-07T06:14:54.004Z,10.90
2017-05-07T06:17:21.606Z,11.00
2017-05-07T06:19:49.402Z,11.30
2017-05-07T06:22:16.920Z,11.40
2017-05-07T06:24:44.432Z,11.60
2017-05-07T06:27:12.013Z,11.60
2017-05-07T06:29:39.836Z,11.60
2017-05-07T06:32:07.375Z,11.80
2017-05-07T06:34:34.887Z,12.10
2017-05-07T06:37:02.466Z,12.20
2017-05-07T06:39:30.028Z,12.30
2017-05-07T06:41:58.369Z,12.10
2017-05-07T06:44:25.976Z,12.10
2017-05-07T06:46:53.743Z,11.90
2017-05-07T06:49:22.011Z,11.80
2017-05-07T06:51:49.544Z,11.80
2017-05-07T06:54:18.106Z,11.60
2017-05-07T06:56:45.696Z,11.60
2017-05-07T06:59:14.000Z,11.90
2017-05-07T07:01:41.552Z,11.90
2017-05-07T07:04:09.116Z,11.90
2017-05-07T07:06:36.984Z,11.90
2017-05-07T07:09:05.340Z,11.90
2017-05-07T07:11:32.884Z,11.90
2017-05-07T07:14:00.707Z,12.20
2017-05-07T07:16:28.319Z,12.40
2017-05-07T07:18:55.855Z,12.50
2017-05-07T07:21:24.155Z,13.10
2017-05-07T07:23:52.443Z,13.40
2017-05-07T07:26:20.036Z,13.40
2017-05-07T07:28:47.643Z,13.80
2017-05-07T07:31:15.913Z,14.80
2017-05-07T07:33:43.447Z,14.80
2017-05-07T07:36:12.106Z,16.60
2017-05-07T07:38:40.778Z,17.00
2017-05-07T07:41:09.347Z,18.30
2017-05-07T07:43:36.990Z,18.20
2017-05-07T07:46:04.496Z,18.40
2017-05-07T07:48:32.023Z,19.00
2017-05-07T07:51:00.607Z,18.80
2017-05-07T07:53:28.194Z,18.70
2017-05-07T07:55:56.508Z,15.40
2017-05-07T07:58:25.913Z,16.40
2017-05-07T08:00:53.440Z,16.40
2017-05-07T08:03:21.998Z,18.60
2017-05-07T08:05:50.299Z,20.60
2017-05-07T08:08:17.857Z,20.50
2017-05-07T08:10:47.119Z,19.80
2017-05-07T08:13:15.691Z,19.00
2017-05-07T08:15:44.024Z,18.20
2017-05-07T08:18:11.532Z,18.20
2017-05-07T08:20:40.096Z,16.10
2017-05-07T08:23:07.616Z,16.10
2017-05-07T08:25:36.283Z,16.90
2017-05-07T08:28:04.593Z,18.20
2017-05-07T08:30:32.128Z,18.20
2017-05-07T08:33:00.400Z,20.50
2017-05-07T08:35:28.927Z,19.70
2017-05-07T08:37:56.516Z,19.70
2017-05-07T08:40:25.527Z,20.00
2017-05-07T08:42:53.837Z,20.20
2017-05-07T08:45:22.180Z,19.90
2017-05-07T08:47:50.504Z,19.80
2017-05-07T08:50:18.001Z,19.80
2017-05-07T08:52:45.581Z,19.40
2017-05-07T08:55:14.124Z,18.80
2017-05-07T08:57:43.155Z,18.00
2017-05-07T09:00:10.687Z,18.00
2017-05-07T09:02:39.048Z,18.20
2017-05-07T09:05:06.583Z,18.10
2017-05-07T09:07:34.111Z,18.90
2017-05-07T09:10:01.621Z,18.70
2017-05-07T09:12:47.890Z,18.90
2017-05-07T09:15:45.148Z,18.90
2017-05-07T09:18:35.237Z,17.20
2017-05-07T09:21:03.543Z,17.30
2017-05-07T09:23:31.834Z,17.40
2017-05-07T09:25:59.440Z,17.40
2017-05-07T09:28:26.994Z,17.70
2017-05-07T09:30:55.303Z,18.00
2017-05-07T09:33:22.927Z,18.00
2017-05-07T09:35:50.483Z,17.70
2017-05-07T09:38:18.188Z,17.40
2017-05-07T09:40:46.526Z,16.70
2017-05-07T09:43:14.653Z,16.70
2017-05-07T09:45:43.084Z,16.40
2017-05-07T09:48:10.652Z,16.30
2017-05-07T09:50:38.229Z,16.40
2017-05-07T09:53:06.771Z,16.70
2017-05-07T09:55:35.072Z,17.10
2017-05-07T09:58:04.504Z,16.40
2017-05-07T10:00:34.052Z,16.40
2017-05-07T10:03:02.357Z,16.20
2017-05-07T10:05:32.212Z,16.10
2017-05-07T10:07:59.723Z,16.10
2017-05-07T10:10:27.271Z,16.50
2017-05-07T10:12:56.323Z,17.40
2017-05-07T10:15:24.309Z,17.40
2017-05-07T10:17:52.579Z,17.60
2017-05-07T10:20:20.144Z,17.60
2017-05-07T10:22:47.650Z,16.90
2017-05-07T10:25:17.113Z,16.60
2017-05-07T10:27:44.635Z,16.60
2017-05-07T10:30:13.295Z,17.30
2017-05-07T10:32:42.331Z,17.70
2017-05-07T10:35:09.855Z,17.80
2017-05-07T10:37:38.507Z,17.40
2017-05-07T10:40:06.048Z,17.40
2017-05-07T10:42:33.828Z,17.20
2017-05-07T10:45:02.114Z,17.30
2017-05-07T10:47:30.651Z,17.60
2017-05-07T10:49:58.167Z,17.60
2017-05-07T10:52:26.469Z,17.90
2017-05-07T10:54:53.972Z,17.90
2017-05-07T10:57:23.493Z,18.00
2017-05-07T10:59:52.207Z,18.00
2017-05-07T11:02:19.841Z,17.30
2017-05-07T11:04:47.344Z,16.90
2017-05-07T11:07:14.944Z,16.50
2017-05-07T11:09:42.622Z,16.70
2017-05-07T11:12:10.986Z,17.00
2017-05-07T11:14:39.275Z,17.40
2017-05-07T11:17:07.567Z,17.00
2017-05-07T11:19:35.115Z,17.00
2017-05-07T11:22:02.615Z,16.80
2017-05-07T11:24:30.284Z,16.90
2017-05-07T11:26:57.858Z,16.80
2017-05-07T11:29:27.329Z,16.60
2017-05-07T11:31:56.726Z,16.30
2017-05-07T11:34:24.259Z,16.30
2017-05-07T11:36:51.992Z,16.00
2017-05-07T11:39:20.623Z,16.30
2017-05-07T11:41:48.176Z,16.30
2017-05-07T11:44:15.691Z,15.90
2017-05-07T11:46:43.220Z,16.10
2017-05-07T11:49:10.741Z,16.20
2017-05-07T11:51:38.278Z,16.40
2017-05-07T11:54:05.848Z,16.40
2017-05-07T11:56:34.273Z,16.50
2017-05-07T11:59:02.448Z,16.50
2017-05-07T12:01:30.032Z,17.00
2017-05-07T12:03:58.356Z,17.00
2017-05-07T12:06:25.883Z,17.00
2017-05-07T12:08:53.556Z,16.80
2017-05-07T12:11:22.048Z,16.90
2017-05-07T12:13:50.327Z,16.70
2017-05-07T12:16:17.887Z,16.70
2017-05-07T12:18:45.415Z,16.80
2017-05-07T12:21:12.931Z,16.90
2017-05-07T12:23:40.484Z,16.80
2017-05-07T12:26:08.746Z,16.60
2017-05-07T12:28:37.803Z,16.50
2017-05-07T12:31:06.356Z,16.40
2017-05-07T12:33:34.680Z,16.50
2017-05-07T12:36:02.439Z,16.50
2017-05-07T12:38:29.999Z,16.50
2017-05-07T12:40:57.570Z,16.50
2017-05-07T12:43:26.603Z,15.80
2017-05-07T12:45:54.961Z,15.70
2017-05-07T12:48:22.493Z,15.70
2017-05-07T12:50:51.604Z,15.30
2017-05-07T12:53:20.678Z,15.10
2017-05-07T12:55:48.944Z,15.00
2017-05-07T12:58:17.252Z,14.90
2017-05-07T13:00:44.752Z,14.90
2017-05-07T13:03:13.352Z,15.20
2017-05-07T13:05:41.645Z,15.50
2017-05-07T13:08:10.689Z,15.30
2017-05-07T13:10:38.514Z,15.40
2017-05-07T13:13:07.567Z,15.10
2017-05-07T13:15:35.441Z,15.10
2017-05-07T13:18:03.715Z,15.10
2017-05-07T13:20:32.323Z,14.90
2017-05-07T13:23:00.587Z,14.80
2017-05-07T13:25:28.439Z,14.80
2017-05-07T13:27:56.760Z,14.60
2017-05-07T13:30:25.419Z,14.60
2017-05-07T13:32:52.917Z,14.60
2017-05-07T13:35:21.216Z,14.60
2017-05-07T13:37:49.832Z,14.70
2017-05-07T13:40:17.336Z,14.70
2017-05-07T13:42:45.636Z,15.00
2017-05-07T13:45:13.913Z,15.10
2017-05-07T13:47:41.431Z,15.00
2017-05-07T13:50:10.060Z,15.30
2017-05-07T13:52:37.609Z,15.20
2017-05-07T13:55:06.129Z,15.20
2017-05-07T13:57:34.417Z,15.30
2017-05-07T14:00:02.691Z,15.40
2017-05-07T14:02:31.025Z,15.60
2017-05-07T14:04:58.556Z,15.60
2017-05-07T14:07:26.846Z,16.00
2017-05-07T14:09:54.610Z,16.00
2017-05-07T14:12:22.903Z,16.50
2017-05-07T14:14:50.475Z,16.60
2017-05-07T14:17:19.507Z,16.50
2017-05-07T14:19:48.120Z,16.80
2017-05-07T14:22:15.635Z,16.80
2017-05-07T14:24:43.175Z,16.50
2017-05-07T14:27:11.667Z,15.80
2017-05-07T14:29:40.033Z,15.60
2017-05-07T14:32:08.311Z,15.60
2017-05-07T14:34:36.607Z,15.60
2017-05-07T14:37:05.223Z,15.70
2017-05-07T14:39:33.089Z,15.70
2017-05-07T14:42:00.596Z,15.90
2017-05-07T14:44:28.920Z,16.50
2017-05-07T14:46:56.423Z,16.50
2017-05-07T14:49:24.795Z,16.50
2017-05-07T14:51:53.093Z,16.50
2017-05-07T14:54:20.631Z,16.50
2017-05-07T14:56:48.896Z,16.30
2017-05-07T14:59:16.417Z,16.30
2017-05-07T15:01:44.733Z,16.70
2017-05-07T15:04:13.051Z,16.30
2017-05-07T15:06:41.509Z,15.90
2017-05-07T15:09:09.303Z,15.80
2017-05-07T15:11:37.892Z,15.60
2017-05-07T15:14:06.243Z,15.70
2017-05-07T15:16:33.900Z,15.70
2017-05-07T15:19:01.590Z,15.90
2017-05-07T15:21:29.107Z,16.30
2017-05-07T15:23:56.613Z,16.40
2017-05-07T15:26:24.487Z,16.40
2017-05-07T15:28:53.552Z,16.50
2017-05-07T15:31:21.079Z,16.50
2017-05-07T15:33:48.585Z,16.40
2017-05-07T15:36:16.460Z,16.00
2017-05-07T15:38:45.477Z,15.70
2017-05-07T15:41:14.004Z,15.60
2017-05-07T15:43:41.571Z,15.60
2017-05-07T15:46:09.890Z,15.30
2017-05-07T15:48:38.232Z,15.40
2017-05-07T15:51:05.946Z,15.30
2017-05-07T15:53:33.480Z,15.50
2017-05-07T15:56:01.777Z,15.70
2017-05-07T15:58:29.287Z,15.70
2017-05-07T16:00:58.355Z,15.80
2017-05-07T16:03:26.643Z,15.90
2017-05-07T16:05:54.192Z,15.90
2017-05-07T16:08:21.698Z,15.80
2017-05-07T16:10:49.987Z,15.60
2017-05-07T16:13:17.508Z,15.60
2017-05-07T16:15:45.024Z,15.40
2017-05-07T16:24:33.489Z,15.50
2017-05-07T16:27:07.904Z,15.70
2017-05-07T16:29:53.140Z,15.70
2017-05-07T16:32:20.697Z,15.80
2017-05-07T16:34:48.200Z,15.80
2017-05-07T16:37:16.514Z,15.90
2017-05-07T16:39:44.088Z,15.90
2017-05-07T16:42:28.011Z,15.60
2017-05-07T16:44:55.531Z,15.60
2017-05-07T16:47:23.030Z,15.40
2017-05-07T16:49:51.375Z,15.20
2017-05-07T16:52:19.968Z,15.00
2017-05-07T16:54:48.284Z,14.80
2017-05-07T16:57:16.617Z,14.60
2017-05-07T16:59:44.904Z,14.60
2017-05-07T17:02:12.447Z,14.50
2017-05-07T17:04:40.760Z,14.50
2017-05-07T17:07:15.403Z,14.40
2017-05-07T17:09:44.031Z,14.40
2017-05-07T17:12:12.308Z,14.30
2017-05-07T17:14:40.599Z,14.30
2017-05-07T17:17:08.183Z,14.30
2017-05-07T17:19:36.480Z,14.30
2017-05-07T17:22:04.339Z,14.20
2017-05-07T17:24:32.652Z,14.20
2017-05-07T17:27:00.232Z,14.20
2017-05-07T17:29:28.529Z,14.10
2017-05-07T17:31:56.059Z,14.10
2017-05-07T17:34:24.419Z,14.20
2017-05-07T17:36:53.009Z,14.30
2017-05-07T17:39:21.310Z,14.30
2017-05-07T17:41:48.850Z,14.30
2017-05-07T17:44:17.119Z,14.50
2017-05-07T17:46:45.643Z,14.40
2017-05-07T17:49:15.129Z,14.30
2017-05-07T17:51:43.451Z,14.30
2017-05-07T17:54:10.955Z,14.30
2017-05-07T17:56:40.222Z,14.00
2017-05-07T17:59:07.841Z,14.00
2017-05-07T18:01:37.464Z,13.90
2017-05-07T18:04:05.459Z,13.80
2017-05-07T18:06:33.760Z,13.50
2017-05-07T18:09:01.364Z,13.50
2017-05-07T18:11:28.879Z,13.40
2017-05-07T18:13:58.244Z,13.10
2017-05-07T18:16:25.787Z,13.10
2017-05-07T18:18:53.639Z,13.10
2017-05-07T18:21:21.487Z,12.90
2017-05-07T18:23:49.960Z,12.70
2017-05-07T18:26:18.260Z,12.70
2017-05-07T18:28:45.803Z,12.60
2017-05-07T18:31:13.303Z,12.70
2017-05-07T18:33:40.892Z,12.60
2017-05-07T18:36:08.644Z,12.50
2017-05-07T18:38:37.727Z,12.30
2017-05-07T18:41:05.283Z,12.30
2017-05-07T18:43:32.929Z,12.10
2017-05-07T18:46:00.802Z,12.00
2017-05-07T18:48:28.568Z,12.00
2017-05-07T18:50:56.184Z,12.00
2017-05-07T18:53:24.703Z,11.70
2017-05-07T18:55:52.343Z,11.60
2017-05-07T18:58:20.351Z,11.40
2017-05-07T19:00:47.920Z,11.20
2017-05-07T19:03:16.676Z,10.90
2017-05-07T19:05:44.216Z,10.90
2017-05-07T19:08:11.924Z,10.90
2017-05-07T19:10:40.249Z,10.70
2017-05-07T19:13:08.511Z,10.60
2017-05-07T19:15:36.047Z,10.60
2017-05-07T19:18:04.400Z,10.40
2017-05-07T19:20:33.595Z,10.40
2017-05-07T19:23:01.332Z,10.30
2017-05-07T19:25:29.036Z,10.30
2017-05-07T19:27:56.776Z,10.30
2017-05-07T19:30:24.305Z,10.20
2017-05-07T19:32:52.703Z,10.10
2017-05-07T19:35:21.389Z,10.10
2017-05-07T19:37:50.335Z,10.00
2017-05-07T19:40:18.015Z,10.00
2017-05-07T19:42:46.527Z,9.90
2017-05-07T19:45:14.062Z,9.90
2017-05-07T19:47:42.418Z,10.00
2017-05-07T19:50:10.433Z,10.00
2017-05-07T19:52:38.980Z,10.10
2017-05-07T19:55:07.496Z,10.10
2017-05-07T19:57:35.934Z,10.20
2017-05-07T20:00:04.412Z,10.30
2017-05-07T20:02:33.080Z,10.20
2017-05-07T20:05:01.631Z,10.30
2017-05-07T20:07:30.383Z,10.30
2017-05-07T20:10:00.180Z,10.20
2017-05-07T20:12:28.234Z,10.20
2017-05-07T20:14:55.861Z,10.10
2017-05-07T20:17:24.612Z,10.00
2017-05-07T20:19:53.057Z,10.00
2017-05-07T20:22:20.597Z,9.90
2017-05-07T20:24:48.700Z,9.90
2017-05-07T20:27:17.348Z,9.90
2017-05-07T20:29:44.876Z,9.80
2017-05-07T20:32:12.903Z,9.90
2017-05-07T20:34:41.883Z,9.80
2017-05-07T20:37:10.416Z,9.70
2017-05-07T20:39:38.241Z,9.70
2017-05-07T20:42:05.792Z,9.70
2017-05-07T20:44:34.071Z,9.60
2017-05-07T20:47:02.401Z,9.70
2017-05-07T20:49:30.969Z,9.70
2017-05-07T20:51:58.472Z,9.70
2017-05-07T20:54:26.828Z,9.70
2017-05-07T20:56:54.395Z,9.70
2017-05-07T20:59:22.744Z,9.90
2017-05-07T21:01:51.057Z,10.00
2017-05-07T21:04:18.568Z,10.00
2017-05-07T21:06:46.884Z,10.20
2017-05-07T21:09:14.420Z,10.20
2017-05-07T21:11:42.765Z,10.30
2017-05-07T21:14:12.087Z,10.40
2017-05-07T21:16:40.427Z,10.40
2017-05-07T21:19:07.960Z,10.40
2017-05-07T21:21:35.484Z,10.50
2017-05-07T21:24:03.784Z,10.50
2017-05-07T21:26:31.361Z,10.50
2017-05-07T21:28:59.672Z,10.60
2017-05-07T21:31:27.221Z,10.60
2017-05-07T21:33:54.789Z,10.60
2017-05-07T21:36:22.343Z,10.60
2017-05-07T21:38:49.960Z,10.60
2017-05-07T21:41:17.537Z,10.60
2017-05-07T21:43:45.051Z,10.60
2017-05-07T21:46:12.579Z,10.60
2017-05-07T21:48:40.095Z,10.50
2017-05-07T21:51:07.631Z,10.50
2017-05-07T21:53:35.976Z,10.50
2017-05-07T21:56:04.279Z,10.50
2017-05-07T21:58:31.804Z,10.50
2017-05-07T22:01:00.378Z,10.60
2017-05-07T22:03:29.479Z,10.60
2017-05-07T22:05:56.976Z,10.60
2017-05-07T22:08:24.546Z,10.60
2017-05-07T22:10:52.070Z,10.60
2017-05-07T22:13:19.572Z,10.60
2017-05-07T22:15:47.136Z,10.70
2017-05-07T22:18:14.640Z,10.70
2017-05-07T22:20:43.079Z,10.70
2017-05-07T22:23:12.100Z,10.70
2017-05-07T22:25:40.431Z,10.70
2017-05-07T22:28:08.283Z,10.70
2017-05-07T22:30:35.845Z,10.70
2017-05-07T22:33:03.374Z,10.70
2017-05-07T22:35:31.165Z,10.70
2017-05-07T22:37:58.728Z,10.70
2017-05-07T22:40:26.603Z,10.70
2017-05-07T22:42:54.101Z,10.70
2017-05-07T22:45:22.728Z,10.70
2017-05-07T22:47:50.248Z,10.60
2017-05-07T22:50:17.828Z,10.60
2017-05-07T22:52:45.605Z,10.60
2017-05-07T22:55:13.127Z,10.60
2017-05-07T22:57:40.628Z,10.60
2017-05-07T23:00:08.479Z,10.50
2017-05-07T23:02:36.347Z,10.50
2017-05-07T23:05:04.619Z,10.40
2017-05-07T23:07:32.931Z,10.40
2017-05-07T23:10:00.434Z,10.40
2017-05-07T23:12:28.072Z,10.40
2017-05-07T23:14:56.339Z,10.30
2017-05-07T23:17:24.663Z,10.20
2017-05-07T23:19:52.961Z,10.20
2017-05-07T23:22:22.232Z,10.00
2017-05-07T23:24:49.724Z,10.00
2017-05-07T23:27:18.749Z,9.70
2017-05-07T23:29:46.243Z,9.70
2017-05-07T23:32:14.576Z,9.70
2017-05-07T23:34:42.145Z,9.70
2017-05-07T23:37:09.934Z,9.70
2017-05-07T23:39:37.473Z,9.50
2017-05-07T23:42:05.003Z,9.30
2017-05-07T23:44:33.528Z,8.90
2017-05-07T23:47:01.832Z,8.80
2017-05-07T23:49:29.352Z,8.80
2017-05-07T23:51:56.843Z,8.60
2017-05-07T23:54:24.457Z,8.50
2017-05-07T23:56:52.738Z,8.30
2017-05-07T23:59:20.511Z,8.30
